sensor_id;sensor_type;location;lat;lon;timestamp;pressure;altitude;pressure_sealevel;temperature;humidity
41596;BME280;27283;52.504;13.358;2023-08-06T00:02:01;100444.97;;;19.10;86.92
41596;BME280;27283;52.504;13.358;2023-08-06T00:04:34;100446.03;;;19.09;86.54
41596;BME280;27283;52.504;13.358;2023-08-06T00:07:06;100452.16;;;19.05;87.37
41596;BME280;27283;52.504;13.358;2023-08-06T00:09:39;100442.94;;;19.06;87.23
41596;BME280;27283;52.504;13.358;2023-08-06T00:12:14;100444.50;;;19.13;87.00
41596;BME280;27283;52.504;13.358;2023-08-06T00:14:50;100442.47;;;19.09;86.96
41596;BME280;27283;52.504;13.358;2023-08-06T00:17:22;100436.66;;;19.05;86.87
41596;BME280;27283;52.504;13.358;2023-08-06T00:19:55;100427.66;;;19.05;86.45
41596;BME280;27283;52.504;13.358;2023-08-06T00:22:33;100424.16;;;18.98;87.30
41596;BME280;27283;52.504;13.358;2023-08-06T00:25:07;100426.06;;;18.97;87.13
41596;BME280;27283;52.504;13.358;2023-08-06T00:27:43;100428.28;;;18.88;87.75
41596;BME280;27283;52.504;13.358;2023-08-06T00:30:16;100420.25;;;18.93;87.16
41596;BME280;27283;52.504;13.358;2023-08-06T00:32:48;100411.63;;;18.97;86.41
41596;BME280;27283;52.504;13.358;2023-08-06T00:35:22;100420.56;;;18.85;86.58
41596;BME280;27283;52.504;13.358;2023-08-06T00:37:54;100427.88;;;18.85;87.15
41596;BME280;27283;52.504;13.358;2023-08-06T00:40:27;100413.25;;;18.86;87.02
41596;BME280;27283;52.504;13.358;2023-08-06T00:43:03;100423.47;;;18.84;86.63
41596;BME280;27283;52.504;13.358;2023-08-06T00:45:36;100423.81;;;18.94;86.24
41596;BME280;27283;52.504;13.358;2023-08-06T00:48:16;100411.94;;;18.88;86.08
41596;BME280;27283;52.504;13.358;2023-08-06T00:50:49;100415.28;;;18.90;86.21
41596;BME280;27283;52.504;13.358;2023-08-06T00:53:22;100419.94;;;18.83;86.43
41596;BME280;27283;52.504;13.358;2023-08-06T00:55:55;100413.44;;;18.84;86.56
41596;BME280;27283;52.504;13.358;2023-08-06T00:58:30;100419.63;;;18.73;86.89
41596;BME280;27283;52.504;13.358;2023-08-06T01:01:21;100405.72;;;18.81;86.73
41596;BME280;27283;52.504;13.358;2023-08-06T01:04:49;100410.09;;;18.82;86.23
41596;BME280;27283;52.504;13.358;2023-08-06T01:07:36;100412.44;;;18.78;86.42
41596;BME280;27283;52.504;13.358;2023-08-06T01:10:22;100403.22;;;18.80;86.45
41596;BME280;27283;52.504;13.358;2023-08-06T01:13:42;100405.09;;;18.79;86.80
41596;BME280;27283;52.504;13.358;2023-08-06T01:17:01;100407.22;;;18.77;86.85
41596;BME280;27283;52.504;13.358;2023-08-06T01:23:38;100395.34;;;18.71;86.97
41596;BME280;27283;52.504;13.358;2023-08-06T01:27:42;100388.41;;;18.57;88.70
41596;BME280;27283;52.504;13.358;2023-08-06T01:30:39;100382.13;;;18.38;89.45
41596;BME280;27283;52.504;13.358;2023-08-06T01:34:21;100383.19;;;18.37;89.96
41596;BME280;27283;52.504;13.358;2023-08-06T01:37:17;100381.69;;;18.41;89.59
41596;BME280;27283;52.504;13.358;2023-08-06T01:39:55;100367.97;;;18.48;89.56
41596;BME280;27283;52.504;13.358;2023-08-06T01:42:50;100363.28;;;18.55;89.53
41596;BME280;27283;52.504;13.358;2023-08-06T01:46:31;100368.53;;;18.38;90.24
41596;BME280;27283;52.504;13.358;2023-08-06T01:49:03;100356.59;;;18.39;90.37
41596;BME280;27283;52.504;13.358;2023-08-06T01:51:35;100364.97;;;18.37;90.63
41596;BME280;27283;52.504;13.358;2023-08-06T01:54:10;100361.03;;;18.33;90.59
41596;BME280;27283;52.504;13.358;2023-08-06T01:57:21;100347.66;;;18.32;90.57
41596;BME280;27283;52.504;13.358;2023-08-06T01:59:53;100347.03;;;18.30;90.96
41596;BME280;27283;52.504;13.358;2023-08-06T02:02:36;100350.84;;;18.29;91.53
41596;BME280;27283;52.504;13.358;2023-08-06T02:05:43;100345.31;;;18.35;91.13
41596;BME280;27283;52.504;13.358;2023-08-06T02:08:15;100346.22;;;18.29;91.35
41596;BME280;27283;52.504;13.358;2023-08-06T02:11:35;100346.38;;;18.34;91.38
41596;BME280;27283;52.504;13.358;2023-08-06T02:14:39;100338.66;;;18.31;92.14
41596;BME280;27283;52.504;13.358;2023-08-06T02:17:20;100339.72;;;18.30;92.21
41596;BME280;27283;52.504;13.358;2023-08-06T02:20:01;100342.97;;;18.20;92.48
41596;BME280;27283;52.504;13.358;2023-08-06T02:23:24;100344.03;;;18.19;93.55
41596;BME280;27283;52.504;13.358;2023-08-06T02:26:00;100335.88;;;17.76;95.79
41596;BME280;27283;52.504;13.358;2023-08-06T02:28:32;100339.31;;;17.64;97.80
41596;BME280;27283;52.504;13.358;2023-08-06T02:31:23;100334.19;;;17.49;98.75
41596;BME280;27283;52.504;13.358;2023-08-06T02:34:12;100330.06;;;17.47;99.92
41596;BME280;27283;52.504;13.358;2023-08-06T02:36:44;100326.50;;;17.46;99.30
41596;BME280;27283;52.504;13.358;2023-08-06T02:39:30;100320.59;;;17.49;99.47
41596;BME280;27283;52.504;13.358;2023-08-06T02:42:04;100317.28;;;17.47;99.32
41596;BME280;27283;52.504;13.358;2023-08-06T02:44:36;100306.41;;;17.47;99.56
41596;BME280;27283;52.504;13.358;2023-08-06T02:47:11;100311.69;;;17.42;100.00
41596;BME280;27283;52.504;13.358;2023-08-06T02:49:43;100303.94;;;17.46;100.00
41596;BME280;27283;52.504;13.358;2023-08-06T02:52:15;100301.81;;;17.48;100.00
41596;BME280;27283;52.504;13.358;2023-08-06T02:54:47;100306.91;;;17.38;100.00
41596;BME280;27283;52.504;13.358;2023-08-06T02:57:20;100298.38;;;17.34;100.00
41596;BME280;27283;52.504;13.358;2023-08-06T02:59:52;100306.31;;;17.35;100.00
41596;BME280;27283;52.504;13.358;2023-08-06T03:02:26;100304.41;;;17.36;100.00
41596;BME280;27283;52.504;13.358;2023-08-06T03:05:02;100304.13;;;17.19;100.00
41596;BME280;27283;52.504;13.358;2023-08-06T03:07:35;100306.59;;;17.27;100.00
41596;BME280;27283;52.504;13.358;2023-08-06T03:10:08;100304.25;;;17.31;100.00
41596;BME280;27283;52.504;13.358;2023-08-06T03:12:41;100312.03;;;17.27;100.00
41596;BME280;27283;52.504;13.358;2023-08-06T03:15:18;100305.06;;;17.31;100.00
41596;BME280;27283;52.504;13.358;2023-08-06T03:17:55;100291.78;;;17.23;100.00
41596;BME280;27283;52.504;13.358;2023-08-06T03:20:28;100293.72;;;17.16;100.00
41596;BME280;27283;52.504;13.358;2023-08-06T03:23:00;100292.69;;;17.10;100.00
41596;BME280;27283;52.504;13.358;2023-08-06T03:25:35;100285.44;;;17.04;100.00
41596;BME280;27283;52.504;13.358;2023-08-06T03:28:13;100279.19;;;17.04;100.00
41596;BME280;27283;52.504;13.358;2023-08-06T03:30:45;100285.66;;;17.03;100.00
41596;BME280;27283;52.504;13.358;2023-08-06T03:33:20;100283.16;;;17.01;100.00
41596;BME280;27283;52.504;13.358;2023-08-06T03:35:53;100269.84;;;16.93;100.00
41596;BME280;27283;52.504;13.358;2023-08-06T03:38:52;100274.28;;;16.87;100.00
41596;BME280;27283;52.504;13.358;2023-08-06T03:42:11;100261.72;;;16.93;100.00
41596;BME280;27283;52.504;13.358;2023-08-06T03:44:43;100253.56;;;16.93;100.00
41596;BME280;27283;52.504;13.358;2023-08-06T03:47:16;100255.22;;;16.94;100.00
41596;BME280;27283;52.504;13.358;2023-08-06T03:49:51;100256.50;;;16.91;100.00
41596;BME280;27283;52.504;13.358;2023-08-06T03:52:26;100250.03;;;16.86;100.00
41596;BME280;27283;52.504;13.358;2023-08-06T03:54:58;100248.78;;;16.88;100.00
41596;BME280;27283;52.504;13.358;2023-08-06T03:57:31;100250.84;;;16.86;100.00
41596;BME280;27283;52.504;13.358;2023-08-06T04:00:26;100241.50;;;16.82;100.00
41596;BME280;27283;52.504;13.358;2023-08-06T04:03:13;100238.31;;;16.92;100.00
41596;BME280;27283;52.504;13.358;2023-08-06T04:05:48;100236.38;;;16.67;100.00
41596;BME280;27283;52.504;13.358;2023-08-06T04:08:31;100232.72;;;16.87;100.00
41596;BME280;27283;52.504;13.358;2023-08-06T04:11:06;100230.88;;;16.74;100.00
41596;BME280;27283;52.504;13.358;2023-08-06T04:13:43;100227.50;;;16.78;100.00
41596;BME280;27283;52.504;13.358;2023-08-06T04:16:54;100221.25;;;16.78;100.00
41596;BME280;27283;52.504;13.358;2023-08-06T04:19:26;100226.84;;;16.83;100.00
41596;BME280;27283;52.504;13.358;2023-08-06T04:22:20;100216.44;;;16.80;100.00
41596;BME280;27283;52.504;13.358;2023-08-06T04:25:10;100216.06;;;16.76;100.00
41596;BME280;27283;52.504;13.358;2023-08-06T04:27:42;100220.66;;;16.76;100.00
41596;BME280;27283;52.504;13.358;2023-08-06T04:30:27;100218.78;;;16.70;100.00
41596;BME280;27283;52.504;13.358;2023-08-06T04:33:58;100212.28;;;16.77;100.00
41596;BME280;27283;52.504;13.358;2023-08-06T04:36:31;100202.63;;;16.56;100.00
41596;BME280;27283;52.504;13.358;2023-08-06T04:39:21;100196.31;;;16.62;100.00
41596;BME280;27283;52.504;13.358;2023-08-06T04:41:54;100197.84;;;16.52;100.00
41596;BME280;27283;52.504;13.358;2023-08-06T04:47:34;100189.78;;;16.70;100.00
41596;BME280;27283;52.504;13.358;2023-08-06T04:50:07;100179.03;;;16.57;100.00
41596;BME280;27283;52.504;13.358;2023-08-06T04:52:39;100183.72;;;16.43;100.00
41596;BME280;27283;52.504;13.358;2023-08-06T04:58:59;100177.47;;;16.36;100.00
41596;BME280;27283;52.504;13.358;2023-08-06T05:01:31;100173.03;;;16.48;100.00
41596;BME280;27283;52.504;13.358;2023-08-06T05:04:40;100175.78;;;16.41;100.00
41596;BME280;27283;52.504;13.358;2023-08-06T05:07:15;100173.28;;;16.40;100.00
41596;BME280;27283;52.504;13.358;2023-08-06T05:09:47;100169.78;;;16.33;100.00
41596;BME280;27283;52.504;13.358;2023-08-06T05:12:19;100172.06;;;16.36;100.00
41596;BME280;27283;52.504;13.358;2023-08-06T05:14:54;100170.81;;;16.38;100.00
41596;BME280;27283;52.504;13.358;2023-08-06T05:17:27;100168.75;;;16.34;100.00
41596;BME280;27283;52.504;13.358;2023-08-06T05:19:59;100163.47;;;16.39;100.00
41596;BME280;27283;52.504;13.358;2023-08-06T05:22:32;100164.53;;;16.38;100.00
41596;BME280;27283;52.504;13.358;2023-08-06T05:25:05;100151.50;;;16.53;100.00
41596;BME280;27283;52.504;13.358;2023-08-06T05:27:38;100156.78;;;16.73;100.00
41596;BME280;27283;52.504;13.358;2023-08-06T05:30:13;100149.88;;;16.71;100.00
41596;BME280;27283;52.504;13.358;2023-08-06T05:32:45;100144.75;;;16.88;100.00
41596;BME280;27283;52.504;13.358;2023-08-06T05:35:17;100147.34;;;16.76;100.00
41596;BME280;27283;52.504;13.358;2023-08-06T05:37:50;100151.91;;;16.82;100.00
41596;BME280;27283;52.504;13.358;2023-08-06T05:40:22;100143.72;;;16.89;100.00
41596;BME280;27283;52.504;13.358;2023-08-06T05:42:55;100142.69;;;16.83;100.00
41596;BME280;27283;52.504;13.358;2023-08-06T05:45:30;100145.09;;;16.73;100.00
41596;BME280;27283;52.504;13.358;2023-08-06T05:48:02;100147.75;;;16.79;100.00
41596;BME280;27283;52.504;13.358;2023-08-06T05:50:35;100148.97;;;16.83;100.00
41596;BME280;27283;52.504;13.358;2023-08-06T05:53:07;100143.28;;;16.92;100.00
41596;BME280;27283;52.504;13.358;2023-08-06T05:55:40;100143.72;;;16.89;100.00
41596;BME280;27283;52.504;13.358;2023-08-06T05:58:12;100150.06;;;16.76;100.00
41596;BME280;27283;52.504;13.358;2023-08-06T06:00:47;100145.09;;;16.98;100.00
41596;BME280;27283;52.504;13.358;2023-08-06T06:03:19;100144.41;;;17.03;100.00
41596;BME280;27283;52.504;13.358;2023-08-06T06:05:52;100143.38;;;17.04;100.00
41596;BME280;27283;52.504;13.358;2023-08-06T06:08:26;100132.16;;;17.18;100.00
41596;BME280;27283;52.504;13.358;2023-08-06T06:10:58;100136.13;;;16.97;100.00
41596;BME280;27283;52.504;13.358;2023-08-06T06:13:31;100132.59;;;16.97;100.00
41596;BME280;27283;52.504;13.358;2023-08-06T06:16:06;100130.25;;;17.19;100.00
41596;BME280;27283;52.504;13.358;2023-08-06T06:18:38;100140.13;;;17.13;100.00
41596;BME280;27283;52.504;13.358;2023-08-06T06:21:11;100128.75;;;17.23;100.00
41596;BME280;27283;52.504;13.358;2023-08-06T06:23:43;100127.72;;;17.24;100.00
41596;BME280;27283;52.504;13.358;2023-08-06T06:26:18;100120.25;;;17.20;100.00
41596;BME280;27283;52.504;13.358;2023-08-06T06:28:53;100120.53;;;17.11;100.00
41596;BME280;27283;52.504;13.358;2023-08-06T06:31:28;100120.38;;;17.06;100.00
41596;BME280;27283;52.504;13.358;2023-08-06T06:34:01;100128.19;;;16.96;100.00
41596;BME280;27283;52.504;13.358;2023-08-06T06:36:39;100118.16;;;16.96;100.00
41596;BME280;27283;52.504;13.358;2023-08-06T06:39:11;100112.16;;;17.31;100.00
41596;BME280;27283;52.504;13.358;2023-08-06T06:41:43;100110.88;;;17.52;100.00
41596;BME280;27283;52.504;13.358;2023-08-06T06:44:15;100117.75;;;17.36;100.00
41596;BME280;27283;52.504;13.358;2023-08-06T06:46:56;100105.59;;;17.39;100.00
41596;BME280;27283;52.504;13.358;2023-08-06T06:49:28;100121.84;;;17.27;100.00
41596;BME280;27283;52.504;13.358;2023-08-06T06:52:01;100111.94;;;17.14;100.00
41596;BME280;27283;52.504;13.358;2023-08-06T06:54:33;100112.00;;;17.08;100.00
41596;BME280;27283;52.504;13.358;2023-08-06T06:57:06;100107.31;;;17.15;100.00
41596;BME280;27283;52.504;13.358;2023-08-06T06:59:38;100110.94;;;17.09;100.00
41596;BME280;27283;52.504;13.358;2023-08-06T07:02:13;100113.34;;;16.98;100.00
41596;BME280;27283;52.504;13.358;2023-08-06T07:04:45;100117.81;;;17.11;100.00
41596;BME280;27283;52.504;13.358;2023-08-06T07:07:18;100119.69;;;17.11;100.00
41596;BME280;27283;52.504;13.358;2023-08-06T07:09:50;100111.00;;;17.02;100.00
41596;BME280;27283;52.504;13.358;2023-08-06T07:12:23;100115.91;;;17.12;100.00
41596;BME280;27283;52.504;13.358;2023-08-06T07:14:55;100117.34;;;17.14;100.00
41596;BME280;27283;52.504;13.358;2023-08-06T07:17:30;100129.56;;;17.05;100.00
41596;BME280;27283;52.504;13.358;2023-08-06T07:20:10;100124.69;;;17.14;100.00
41596;BME280;27283;52.504;13.358;2023-08-06T07:22:46;100115.56;;;17.27;100.00
41596;BME280;27283;52.504;13.358;2023-08-06T07:25:21;100120.69;;;17.35;100.00
41596;BME280;27283;52.504;13.358;2023-08-06T07:27:54;100120.25;;;17.38;100.00
41596;BME280;27283;52.504;13.358;2023-08-06T07:30:26;100130.03;;;17.39;100.00
41596;BME280;27283;52.504;13.358;2023-08-06T07:33:02;100122.88;;;17.26;100.00
41596;BME280;27283;52.504;13.358;2023-08-06T07:35:34;100125.31;;;16.91;100.00
41596;BME280;27283;52.504;13.358;2023-08-06T07:38:07;100121.59;;;16.85;100.00
41596;BME280;27283;52.504;13.358;2023-08-06T07:40:43;100118.25;;;16.90;100.00
41596;BME280;27283;52.504;13.358;2023-08-06T07:43:22;100113.94;;;17.00;100.00
41596;BME280;27283;52.504;13.358;2023-08-06T07:45:58;100117.72;;;17.18;100.00
41596;BME280;27283;52.504;13.358;2023-08-06T07:48:34;100115.69;;;17.13;100.00
41596;BME280;27283;52.504;13.358;2023-08-06T07:51:06;100118.19;;;17.15;100.00
41596;BME280;27283;52.504;13.358;2023-08-06T07:53:48;100117.38;;;16.89;100.00
41596;BME280;27283;52.504;13.358;2023-08-06T07:56:26;100120.72;;;16.91;100.00
41596;BME280;27283;52.504;13.358;2023-08-06T07:58:59;100113.13;;;17.00;100.00
41596;BME280;27283;52.504;13.358;2023-08-06T08:01:31;100115.41;;;17.03;100.00
41596;BME280;27283;52.504;13.358;2023-08-06T08:04:06;100113.75;;;17.21;100.00
41596;BME280;27283;52.504;13.358;2023-08-06T08:06:38;100118.81;;;17.17;100.00
41596;BME280;27283;52.504;13.358;2023-08-06T08:09:11;100111.41;;;17.43;100.00
41596;BME280;27283;52.504;13.358;2023-08-06T08:11:43;100117.44;;;17.26;100.00
41596;BME280;27283;52.504;13.358;2023-08-06T08:14:16;100108.78;;;17.54;100.00
41596;BME280;27283;52.504;13.358;2023-08-06T08:16:48;100104.63;;;17.52;100.00
41596;BME280;27283;52.504;13.358;2023-08-06T08:19:24;100101.53;;;17.48;100.00
41596;BME280;27283;52.504;13.358;2023-08-06T08:22:01;100100.00;;;17.52;100.00
41596;BME280;27283;52.504;13.358;2023-08-06T08:24:33;100090.69;;;17.60;100.00
41596;BME280;27283;52.504;13.358;2023-08-06T08:27:08;100094.09;;;17.74;100.00
41596;BME280;27283;52.504;13.358;2023-08-06T08:29:41;100089.34;;;17.51;100.00
41596;BME280;27283;52.504;13.358;2023-08-06T08:32:13;100082.41;;;17.55;100.00
41596;BME280;27283;52.504;13.358;2023-08-06T08:34:58;100084.69;;;17.40;100.00
41596;BME280;27283;52.504;13.358;2023-08-06T08:37:45;100074.72;;;17.52;100.00
41596;BME280;27283;52.504;13.358;2023-08-06T08:40:18;100079.31;;;17.70;100.00
41596;BME280;27283;52.504;13.358;2023-08-06T08:42:50;100074.00;;;17.75;100.00
41596;BME280;27283;52.504;13.358;2023-08-06T08:45:22;100069.53;;;17.81;100.00
41596;BME280;27283;52.504;13.358;2023-08-06T08:48:01;100070.03;;;17.59;100.00
41596;BME280;27283;52.504;13.358;2023-08-06T08:50:54;100055.47;;;17.84;100.00
41596;BME280;27283;52.504;13.358;2023-08-06T08:53:54;100066.31;;;18.02;100.00
41596;BME280;27283;52.504;13.358;2023-08-06T08:56:29;100057.56;;;18.00;100.00
41596;BME280;27283;52.504;13.358;2023-08-06T08:59:04;100054.25;;;17.98;100.00
41596;BME280;27283;52.504;13.358;2023-08-06T09:01:37;100050.25;;;18.13;100.00
41596;BME280;27283;52.504;13.358;2023-08-06T09:04:24;100049.75;;;17.92;100.00
41596;BME280;27283;52.504;13.358;2023-08-06T09:07:05;100043.50;;;18.03;100.00
41596;BME280;27283;52.504;13.358;2023-08-06T09:09:39;100037.25;;;17.84;100.00
41596;BME280;27283;52.504;13.358;2023-08-06T09:12:15;100036.38;;;17.91;100.00
41596;BME280;27283;52.504;13.358;2023-08-06T09:14:55;100027.19;;;18.03;100.00
41596;BME280;27283;52.504;13.358;2023-08-06T09:17:36;100026.97;;;18.17;100.00
41596;BME280;27283;52.504;13.358;2023-08-06T09:20:12;100026.06;;;18.35;100.00
41596;BME280;27283;52.504;13.358;2023-08-06T09:26:00;100026.28;;;18.21;100.00
41596;BME280;27283;52.504;13.358;2023-08-06T09:28:39;100023.22;;;17.87;100.00
41596;BME280;27283;52.504;13.358;2023-08-06T09:31:12;100022.09;;;18.07;100.00
41596;BME280;27283;52.504;13.358;2023-08-06T09:33:44;100014.16;;;18.05;100.00
41596;BME280;27283;52.504;13.358;2023-08-06T09:36:18;100016.69;;;18.31;100.00
41596;BME280;27283;52.504;13.358;2023-08-06T09:38:50;100017.91;;;18.47;100.00
41596;BME280;27283;52.504;13.358;2023-08-06T09:41:29;100008.31;;;18.44;100.00
41596;BME280;27283;52.504;13.358;2023-08-06T09:44:01;100004.16;;;18.18;100.00
41596;BME280;27283;52.504;13.358;2023-08-06T09:46:36;99996.44;;;18.03;100.00
41596;BME280;27283;52.504;13.358;2023-08-06T09:49:10;99999.31;;;18.32;100.00
41596;BME280;27283;52.504;13.358;2023-08-06T09:51:51;99999.53;;;18.18;100.00
41596;BME280;27283;52.504;13.358;2023-08-06T09:54:31;99998.78;;;17.99;100.00
41596;BME280;27283;52.504;13.358;2023-08-06T09:57:06;99993.84;;;18.20;100.00
41596;BME280;27283;52.504;13.358;2023-08-06T09:59:42;99984.38;;;18.11;100.00
41596;BME280;27283;52.504;13.358;2023-08-06T10:02:17;99987.84;;;18.18;100.00
41596;BME280;27283;52.504;13.358;2023-08-06T10:04:51;99988.31;;;18.15;100.00
41596;BME280;27283;52.504;13.358;2023-08-06T10:07:23;99990.66;;;18.23;100.00
41596;BME280;27283;52.504;13.358;2023-08-06T10:10:05;99979.16;;;17.97;100.00
41596;BME280;27283;52.504;13.358;2023-08-06T10:12:44;99986.59;;;17.90;100.00
41596;BME280;27283;52.504;13.358;2023-08-06T10:15:22;99981.16;;;17.90;100.00
41596;BME280;27283;52.504;13.358;2023-08-06T10:17:58;99972.91;;;17.97;100.00
41596;BME280;27283;52.504;13.358;2023-08-06T10:20:33;99977.06;;;17.81;100.00
41596;BME280;27283;52.504;13.358;2023-08-06T10:23:06;99974.03;;;17.59;100.00
41596;BME280;27283;52.504;13.358;2023-08-06T10:25:41;99966.34;;;17.56;100.00
41596;BME280;27283;52.504;13.358;2023-08-06T10:28:16;99966.50;;;17.61;100.00
41596;BME280;27283;52.504;13.358;2023-08-06T10:30:48;99967.66;;;17.53;100.00
41596;BME280;27283;52.504;13.358;2023-08-06T10:33:21;99965.34;;;17.68;100.00
41596;BME280;27283;52.504;13.358;2023-08-06T10:36:01;99967.72;;;17.65;100.00
41596;BME280;27283;52.504;13.358;2023-08-06T10:38:50;99967.16;;;17.86;100.00
41596;BME280;27283;52.504;13.358;2023-08-06T10:41:30;99964.91;;;17.83;100.00
41596;BME280;27283;52.504;13.358;2023-08-06T10:44:09;99970.31;;;17.71;100.00
41596;BME280;27283;52.504;13.358;2023-08-06T10:46:42;99961.81;;;17.68;100.00
41596;BME280;27283;52.504;13.358;2023-08-06T10:49:19;99965.47;;;17.43;100.00
41596;BME280;27283;52.504;13.358;2023-08-06T10:51:52;99959.88;;;17.57;100.00
41596;BME280;27283;52.504;13.358;2023-08-06T10:54:43;99956.09;;;17.58;100.00
41596;BME280;27283;52.504;13.358;2023-08-06T10:57:16;99960.44;;;17.59;100.00
41596;BME280;27283;52.504;13.358;2023-08-06T10:59:51;99956.59;;;17.66;100.00
41596;BME280;27283;52.504;13.358;2023-08-06T11:02:47;99950.44;;;17.59;100.00
41596;BME280;27283;52.504;13.358;2023-08-06T11:05:36;99955.00;;;17.59;100.00
41596;BME280;27283;52.504;13.358;2023-08-06T11:08:09;99951.41;;;17.77;100.00
41596;BME280;27283;52.504;13.358;2023-08-06T11:10:48;99943.63;;;17.80;100.00
41596;BME280;27283;52.504;13.358;2023-08-06T11:13:31;99946.59;;;17.79;100.00
41596;BME280;27283;52.504;13.358;2023-08-06T11:16:05;99942.31;;;17.83;100.00
41596;BME280;27283;52.504;13.358;2023-08-06T11:18:38;99933.22;;;17.77;100.00
41596;BME280;27283;52.504;13.358;2023-08-06T11:21:11;99933.69;;;17.86;100.00
41596;BME280;27283;52.504;13.358;2023-08-06T11:23:43;99921.16;;;17.85;100.00
41596;BME280;27283;52.504;13.358;2023-08-06T11:26:22;99927.91;;;17.82;100.00
41596;BME280;27283;52.504;13.358;2023-08-06T11:28:57;99925.88;;;17.78;100.00
41596;BME280;27283;52.504;13.358;2023-08-06T11:31:32;99916.78;;;17.84;100.00
41596;BME280;27283;52.504;13.358;2023-08-06T11:34:04;99918.91;;;17.70;100.00
41596;BME280;27283;52.504;13.358;2023-08-06T11:36:40;99919.31;;;17.55;100.00
41596;BME280;27283;52.504;13.358;2023-08-06T11:39:19;99912.06;;;17.79;100.00
41596;BME280;27283;52.504;13.358;2023-08-06T11:42:15;99903.38;;;17.89;100.00
41596;BME280;27283;52.504;13.358;2023-08-06T11:44:49;99905.09;;;17.83;100.00
41596;BME280;27283;52.504;13.358;2023-08-06T11:47:28;99902.34;;;17.71;100.00
41596;BME280;27283;52.504;13.358;2023-08-06T11:50:08;99898.94;;;17.76;100.00
41596;BME280;27283;52.504;13.358;2023-08-06T11:52:44;99897.22;;;17.63;100.00
41596;BME280;27283;52.504;13.358;2023-08-06T11:55:16;99898.09;;;17.64;100.00
41596;BME280;27283;52.504;13.358;2023-08-06T11:57:48;99886.28;;;17.70;100.00
41596;BME280;27283;52.504;13.358;2023-08-06T12:00:26;99889.81;;;17.70;100.00
41596;BME280;27283;52.504;13.358;2023-08-06T12:03:01;99892.03;;;17.62;100.00
41596;BME280;27283;52.504;13.358;2023-08-06T12:05:34;99892.84;;;17.50;100.00
41596;BME280;27283;52.504;13.358;2023-08-06T12:08:13;99891.00;;;17.75;100.00
41596;BME280;27283;52.504;13.358;2023-08-06T12:10:45;99886.28;;;17.70;100.00
41596;BME280;27283;52.504;13.358;2023-08-06T12:13:19;99876.81;;;17.61;100.00
41596;BME280;27283;52.504;13.358;2023-08-06T12:15:51;99879.53;;;17.61;100.00
41596;BME280;27283;52.504;13.358;2023-08-06T12:18:28;99871.63;;;17.71;100.00
41596;BME280;27283;52.504;13.358;2023-08-06T12:21:00;99883.09;;;17.85;100.00
41596;BME280;27283;52.504;13.358;2023-08-06T12:23:32;99876.84;;;17.96;100.00
41596;BME280;27283;52.504;13.358;2023-08-06T12:26:05;99876.28;;;17.94;100.00
41596;BME280;27283;52.504;13.358;2023-08-06T12:28:39;99879.84;;;17.52;100.00
41596;BME280;27283;52.504;13.358;2023-08-06T12:31:11;99878.69;;;17.60;100.00
41596;BME280;27283;52.504;13.358;2023-08-06T12:33:46;99884.09;;;17.60;100.00
41596;BME280;27283;52.504;13.358;2023-08-06T12:36:21;99883.75;;;17.14;100.00
41596;BME280;27283;52.504;13.358;2023-08-06T12:38:53;99875.69;;;17.38;100.00
41596;BME280;27283;52.504;13.358;2023-08-06T12:41:26;99875.13;;;17.60;100.00
41596;BME280;27283;52.504;13.358;2023-08-06T12:43:58;99880.28;;;17.38;100.00
41596;BME280;27283;52.504;13.358;2023-08-06T12:46:30;99876.16;;;17.35;100.00
41596;BME280;27283;52.504;13.358;2023-08-06T12:49:05;99883.75;;;17.14;100.00
41596;BME280;27283;52.504;13.358;2023-08-06T12:51:42;99888.50;;;17.19;100.00
41596;BME280;27283;52.504;13.358;2023-08-06T12:54:28;99879.72;;;17.05;100.00
41596;BME280;27283;52.504;13.358;2023-08-06T12:57:08;99875.59;;;17.14;100.00
41596;BME280;27283;52.504;13.358;2023-08-06T12:59:40;99869.94;;;17.16;100.00
41596;BME280;27283;52.504;13.358;2023-08-06T13:02:13;99864.91;;;17.20;100.00
41596;BME280;27283;52.504;13.358;2023-08-06T13:04:48;99873.94;;;17.56;100.00
41596;BME280;27283;52.504;13.358;2023-08-06T13:07:21;99866.66;;;17.68;100.00
41596;BME280;27283;52.504;13.358;2023-08-06T13:10:05;99863.94;;;17.68;100.00
41596;BME280;27283;52.504;13.358;2023-08-06T13:12:48;99865.28;;;17.35;100.00
41596;BME280;27283;52.504;13.358;2023-08-06T13:15:31;99865.56;;;17.15;100.00
41596;BME280;27283;52.504;13.358;2023-08-06T13:18:06;99867.03;;;17.29;100.00
41596;BME280;27283;52.504;13.358;2023-08-06T13:20:42;99873.09;;;17.43;100.00
41596;BME280;27283;52.504;13.358;2023-08-06T13:23:38;99870.44;;;17.25;100.00
41596;BME280;27283;52.504;13.358;2023-08-06T13:26:11;99872.19;;;17.19;100.00
41596;BME280;27283;52.504;13.358;2023-08-06T13:28:50;99862.13;;;17.08;100.00
41596;BME280;27283;52.504;13.358;2023-08-06T13:31:23;99864.78;;;17.26;100.00
41596;BME280;27283;52.504;13.358;2023-08-06T13:33:56;99870.06;;;17.09;100.00
41596;BME280;27283;52.504;13.358;2023-08-06T13:36:32;99866.47;;;17.09;100.00
41596;BME280;27283;52.504;13.358;2023-08-06T13:39:08;99865.44;;;17.10;100.00
41596;BME280;27283;52.504;13.358;2023-08-06T13:41:53;99861.56;;;16.87;100.00
41596;BME280;27283;52.504;13.358;2023-08-06T13:44:25;99859.66;;;16.88;100.00
41596;BME280;27283;52.504;13.358;2023-08-06T13:46:58;99860.19;;;16.96;100.00